N12KR KRDU-KCLL
Flight info
| Callsign | N12KR |
|---|---|
| Flight time | N/A |
| Altitude | 43000 |
| Route | SHPRD4 SHPRD ODF GAD SWB LFK |
| Aircraft | GLF6/M-SBDE2E3FGHIJ4J5M1RWXY/LB1D1 |
Departure
| Time | N/A |
|---|---|
| Airport | Raleigh-Durham International Airport (KRDU) |
Arrival
| Time | 2026-05-04 23:11 |
|---|---|
| Airport | Easterwood Field (KCLL) |
| Time | Latitude | Longitude | Altitude | Speed | Heading |
|---|---|---|---|---|---|
| 2026-05-04 21:07 | 35.55854 | -80.77058 | 42981 ft | 465 kts | 250° |
| 2026-05-04 21:07 | 35.54643 | -80.80752 | 42975 ft | 466 kts | 250° |
| 2026-05-04 21:08 | 35.52235 | -80.88087 | 42982 ft | 464 kts | 250° |
| 2026-05-04 21:08 | 35.49827 | -80.95406 | 42982 ft | 465 kts | 250° |
| 2026-05-04 21:09 | 35.47402 | -81.02759 | 42978 ft | 465 kts | 250° |
| 2026-05-04 21:09 | 35.44985 | -81.10066 | 42976 ft | 464 kts | 250° |
| 2026-05-04 21:10 | 35.42563 | -81.17371 | 42976 ft | 464 kts | 250° |
| 2026-05-04 21:10 | 35.40144 | -81.24651 | 42972 ft | 463 kts | 251° |
| 2026-05-04 21:11 | 35.37722 | -81.31927 | 42971 ft | 463 kts | 251° |
| 2026-05-04 21:11 | 35.35282 | -81.39234 | 42970 ft | 463 kts | 251° |
| 2026-05-04 21:12 | 35.32855 | -81.46486 | 42968 ft | 463 kts | 250° |
| 2026-05-04 21:12 | 35.30414 | -81.53762 | 42974 ft | 463 kts | 250° |
| 2026-05-04 21:13 | 35.27978 | -81.61007 | 42970 ft | 463 kts | 250° |
| 2026-05-04 21:13 | 35.25520 | -81.68298 | 42981 ft | 464 kts | 250° |
| 2026-05-04 21:14 | 35.23069 | -81.75550 | 42978 ft | 465 kts | 250° |
| 2026-05-04 21:14 | 35.20598 | -81.82851 | 42970 ft | 465 kts | 250° |
| 2026-05-04 21:15 | 35.18131 | -81.90114 | 42979 ft | 466 kts | 250° |
| 2026-05-04 21:15 | 35.15654 | -81.97395 | 42977 ft | 466 kts | 250° |
| 2026-05-04 21:16 | 35.13161 | -82.04704 | 42982 ft | 465 kts | 250° |
| 2026-05-04 21:16 | 35.10690 | -82.11932 | 42987 ft | 464 kts | 250° |
| 2026-05-04 21:17 | 35.08209 | -82.19170 | 42987 ft | 464 kts | 250° |
| 2026-05-04 21:17 | 35.05727 | -82.26397 | 42996 ft | 464 kts | 250° |
| 2026-05-04 21:18 | 35.03230 | -82.33648 | 42991 ft | 465 kts | 250° |
| 2026-05-04 21:18 | 35.00720 | -82.40919 | 42989 ft | 465 kts | 250° |
| 2026-05-04 21:19 | 34.98228 | -82.48123 | 42991 ft | 464 kts | 250° |
| 2026-05-04 21:19 | 34.95712 | -82.55379 | 42985 ft | 464 kts | 250° |
| 2026-05-04 21:20 | 34.93207 | -82.62588 | 42989 ft | 464 kts | 250° |
| 2026-05-04 21:20 | 34.90705 | -82.69771 | 42995 ft | 465 kts | 250° |
| 2026-05-04 21:21 | 34.88176 | -82.77016 | 42993 ft | 464 kts | 250° |
| 2026-05-04 21:21 | 34.85650 | -82.84234 | 42998 ft | 465 kts | 250° |
| 2026-05-04 21:22 | 34.83125 | -82.91431 | 42998 ft | 466 kts | 250° |
| 2026-05-04 21:22 | 34.80578 | -82.98675 | 42995 ft | 466 kts | 250° |
| 2026-05-04 21:23 | 34.78031 | -83.05906 | 42991 ft | 466 kts | 250° |
| 2026-05-04 21:23 | 34.75497 | -83.13081 | 42990 ft | 465 kts | 250° |
| 2026-05-04 21:24 | 34.72946 | -83.20286 | 42994 ft | 465 kts | 250° |
| 2026-05-04 21:24 | 34.70394 | -83.27477 | 42994 ft | 465 kts | 250° |
| 2026-05-04 21:25 | 34.68315 | -83.34864 | 42999 ft | 463 kts | 256° |
| 2026-05-04 21:25 | 34.66495 | -83.42344 | 42990 ft | 463 kts | 256° |
| 2026-05-04 21:26 | 34.64656 | -83.49817 | 42988 ft | 462 kts | 256° |
| 2026-05-04 21:26 | 34.62823 | -83.57239 | 42992 ft | 461 kts | 256° |
| 2026-05-04 21:27 | 34.60979 | -83.64677 | 42984 ft | 461 kts | 256° |
| 2026-05-04 21:27 | 34.59140 | -83.72079 | 42992 ft | 462 kts | 256° |
| 2026-05-04 21:28 | 34.57280 | -83.79544 | 42993 ft | 462 kts | 256° |
| 2026-05-04 21:28 | 34.55423 | -83.86975 | 42982 ft | 462 kts | 256° |
| 2026-05-04 21:29 | 34.53567 | -83.94379 | 42980 ft | 461 kts | 256° |
| 2026-05-04 21:29 | 34.51695 | -84.01827 | 42981 ft | 461 kts | 256° |
| 2026-05-04 21:30 | 34.49830 | -84.09224 | 42978 ft | 461 kts | 256° |
| 2026-05-04 21:30 | 34.47963 | -84.16613 | 42982 ft | 461 kts | 256° |
| 2026-05-04 21:31 | 34.45135 | -84.27756 | 42977 ft | 462 kts | 256° |
| 2026-05-04 21:32 | 34.43258 | -84.35129 | 42983 ft | 461 kts | 256° |
| 2026-05-04 21:32 | 34.41371 | -84.42526 | 42981 ft | 461 kts | 256° |
| 2026-05-04 21:33 | 34.39475 | -84.49932 | 42983 ft | 460 kts | 256° |
| 2026-05-04 21:33 | 34.37583 | -84.57300 | 42976 ft | 461 kts | 257° |
| 2026-05-04 21:34 | 34.35674 | -84.64713 | 42967 ft | 461 kts | 256° |
| 2026-05-04 21:34 | 34.33781 | -84.72046 | 42979 ft | 461 kts | 256° |
| 2026-05-04 21:35 | 34.31871 | -84.79424 | 42976 ft | 461 kts | 256° |
| 2026-05-04 21:35 | 34.29962 | -84.86779 | 42977 ft | 460 kts | 256° |
| 2026-05-04 21:36 | 34.28047 | -84.94135 | 42973 ft | 460 kts | 256° |
| 2026-05-04 21:36 | 34.26133 | -85.01467 | 42969 ft | 459 kts | 256° |
| 2026-05-04 21:37 | 34.24210 | -85.08812 | 42968 ft | 460 kts | 256° |
| 2026-05-04 21:37 | 34.22282 | -85.16160 | 42966 ft | 461 kts | 257° |
| 2026-05-04 21:38 | 34.20347 | -85.23515 | 42964 ft | 460 kts | 257° |
| 2026-05-04 21:38 | 34.18420 | -85.30811 | 42969 ft | 459 kts | 257° |
| 2026-05-04 21:39 | 34.16479 | -85.38152 | 42960 ft | 459 kts | 257° |
| 2026-05-04 21:39 | 34.14542 | -85.45450 | 42960 ft | 460 kts | 257° |
| 2026-05-04 21:40 | 34.12591 | -85.52785 | 42968 ft | 457 kts | 257° |
| 2026-05-04 21:40 | 34.10645 | -85.60080 | 42959 ft | 458 kts | 257° |
| 2026-05-04 21:41 | 34.08698 | -85.67358 | 42973 ft | 459 kts | 256° |
| 2026-05-04 21:41 | 34.06732 | -85.74692 | 42972 ft | 459 kts | 257° |
| 2026-05-04 21:42 | 34.04769 | -85.81983 | 42970 ft | 459 kts | 257° |
| 2026-05-04 21:42 | 34.02805 | -85.89270 | 42968 ft | 458 kts | 257° |
| 2026-05-04 21:43 | 34.00853 | -85.96497 | 42962 ft | 457 kts | 257° |
| 2026-05-04 21:43 | 33.98880 | -86.03776 | 42962 ft | 457 kts | 257° |
| 2026-05-04 21:44 | 33.96915 | -86.11015 | 42965 ft | 457 kts | 257° |
| 2026-05-04 21:44 | 33.94953 | -86.18238 | 42967 ft | 457 kts | 257° |
| 2026-05-04 21:45 | 33.93002 | -86.25410 | 42962 ft | 454 kts | 257° |
| 2026-05-04 21:45 | 33.91036 | -86.32610 | 42963 ft | 455 kts | 258° |
| 2026-05-04 21:46 | 33.89057 | -86.39844 | 42950 ft | 454 kts | 258° |
| 2026-05-04 21:46 | 33.87091 | -86.47006 | 42945 ft | 454 kts | 258° |
| 2026-05-04 21:47 | 33.85111 | -86.54207 | 42952 ft | 455 kts | 258° |
| 2026-05-04 21:47 | 33.83139 | -86.61354 | 42938 ft | 452 kts | 258° |
| 2026-05-04 21:48 | 33.81156 | -86.68531 | 42964 ft | 453 kts | 258° |
| 2026-05-04 21:48 | 33.79174 | -86.75682 | 42969 ft | 452 kts | 257° |
| 2026-05-04 21:49 | 33.77204 | -86.82767 | 42955 ft | 449 kts | 258° |
| 2026-05-04 21:49 | 33.75211 | -86.89925 | 42949 ft | 452 kts | 258° |
| 2026-05-04 21:50 | 33.73224 | -86.97039 | 42959 ft | 451 kts | 258° |
| 2026-05-04 21:50 | 33.71243 | -87.04118 | 42958 ft | 448 kts | 258° |
| 2026-05-04 21:51 | 33.69258 | -87.11186 | 42939 ft | 449 kts | 258° |
| 2026-05-04 21:51 | 33.67263 | -87.18275 | 42948 ft | 449 kts | 258° |
| 2026-05-04 21:52 | 33.65280 | -87.25308 | 42942 ft | 448 kts | 258° |
| 2026-05-04 21:52 | 33.63278 | -87.32385 | 42931 ft | 449 kts | 258° |
| 2026-05-04 21:53 | 33.61334 | -87.39246 | 42941 ft | 445 kts | 258° |
| 2026-05-04 21:53 | 33.59343 | -87.46248 | 42953 ft | 447 kts | 259° |
| 2026-05-04 21:54 | 33.57344 | -87.53268 | 42930 ft | 446 kts | 258° |
| 2026-05-04 21:54 | 33.55346 | -87.60268 | 42936 ft | 446 kts | 258° |
| 2026-05-04 21:55 | 33.53343 | -87.67261 | 42958 ft | 446 kts | 259° |
| 2026-05-04 21:55 | 33.51326 | -87.74295 | 42938 ft | 446 kts | 258° |
| 2026-05-04 21:56 | 33.49326 | -87.81246 | 42939 ft | 443 kts | 258° |
| 2026-05-04 21:56 | 33.47401 | -87.87917 | 42947 ft | 446 kts | 258° |
| 2026-05-04 21:57 | 33.45381 | -87.94911 | 42942 ft | 445 kts | 258° |
| 2026-05-04 21:57 | 33.43360 | -88.01889 | 42936 ft | 443 kts | 258° |
| 2026-05-04 21:58 | 33.41355 | -88.08793 | 42939 ft | 444 kts | 259° |
| 2026-05-04 21:58 | 33.39326 | -88.15762 | 42941 ft | 442 kts | 259° |
| 2026-05-04 21:59 | 33.37306 | -88.22694 | 42939 ft | 443 kts | 259° |
| 2026-05-04 21:59 | 33.35269 | -88.29652 | 42940 ft | 443 kts | 259° |
| 2026-05-04 22:00 | 33.33243 | -88.36562 | 42937 ft | 440 kts | 259° |
| 2026-05-04 22:00 | 33.31207 | -88.43489 | 42947 ft | 442 kts | 259° |
| 2026-05-04 22:01 | 33.29174 | -88.50397 | 42941 ft | 441 kts | 259° |
| 2026-05-04 22:01 | 33.27145 | -88.57265 | 42946 ft | 442 kts | 259° |
| 2026-05-04 22:02 | 33.25110 | -88.64145 | 42935 ft | 437 kts | 259° |
| 2026-05-04 22:02 | 33.23094 | -88.70937 | 42940 ft | 440 kts | 258° |
| 2026-05-04 22:03 | 33.21055 | -88.77801 | 42940 ft | 438 kts | 259° |
| 2026-05-04 22:03 | 33.19029 | -88.84602 | 42944 ft | 438 kts | 259° |
| 2026-05-04 22:04 | 33.16989 | -88.91430 | 42954 ft | 436 kts | 259° |
| 2026-05-04 22:04 | 33.14960 | -88.98206 | 42965 ft | 434 kts | 259° |
| 2026-05-04 22:05 | 33.12924 | -89.04997 | 42969 ft | 435 kts | 259° |
| 2026-05-04 22:05 | 33.10878 | -89.11803 | 42961 ft | 436 kts | 259° |
| 2026-05-04 22:06 | 33.08839 | -89.18564 | 42965 ft | 439 kts | 259° |
| 2026-05-04 22:06 | 33.06786 | -89.25360 | 42958 ft | 435 kts | 260° |
| 2026-05-04 22:07 | 33.04731 | -89.32145 | 42940 ft | 437 kts | 260° |
| 2026-05-04 22:07 | 33.02667 | -89.38949 | 42937 ft | 433 kts | 260° |
| 2026-05-04 22:08 | 33.00624 | -89.45667 | 42940 ft | 436 kts | 260° |
| 2026-05-04 22:08 | 32.98558 | -89.52451 | 42931 ft | 437 kts | 259° |
| 2026-05-04 22:09 | 32.96486 | -89.59227 | 42936 ft | 435 kts | 260° |
| 2026-05-04 22:09 | 32.94413 | -89.66003 | 42938 ft | 440 kts | 260° |
| 2026-05-04 22:10 | 32.92319 | -89.72826 | 42950 ft | 441 kts | 260° |
| 2026-05-04 22:10 | 32.90223 | -89.79637 | 42945 ft | 438 kts | 259° |
| 2026-05-04 22:11 | 32.88141 | -89.86402 | 42927 ft | 436 kts | 260° |
| 2026-05-04 22:11 | 32.86046 | -89.93182 | 42926 ft | 437 kts | 259° |
| 2026-05-04 22:12 | 32.83955 | -89.99927 | 42923 ft | 437 kts | 260° |
| 2026-05-04 22:12 | 32.81852 | -90.06715 | 42916 ft | 438 kts | 259° |
| 2026-05-04 22:13 | 32.79747 | -90.13477 | 42913 ft | 437 kts | 260° |
| 2026-05-04 22:13 | 32.77640 | -90.20239 | 42916 ft | 436 kts | 260° |
| 2026-05-04 22:14 | 32.75530 | -90.27003 | 42909 ft | 437 kts | 260° |
| 2026-05-04 22:14 | 32.73425 | -90.33720 | 42920 ft | 438 kts | 260° |
| 2026-05-04 22:15 | 32.71310 | -90.40468 | 42908 ft | 435 kts | 260° |
| 2026-05-04 22:15 | 32.69194 | -90.47201 | 42909 ft | 435 kts | 259° |
| 2026-05-04 22:16 | 32.67067 | -90.53940 | 42912 ft | 436 kts | 260° |
| 2026-05-04 22:16 | 32.64949 | -90.60652 | 42912 ft | 437 kts | 260° |
| 2026-05-04 22:17 | 32.62817 | -90.67394 | 42927 ft | 437 kts | 259° |
| 2026-05-04 22:17 | 32.60684 | -90.74116 | 42920 ft | 436 kts | 259° |
| 2026-05-04 22:18 | 32.58558 | -90.80810 | 42919 ft | 434 kts | 259° |
| 2026-05-04 22:18 | 32.56705 | -90.86629 | 42910 ft | 435 kts | 259° |
| 2026-05-04 22:19 | 32.54566 | -90.93333 | 42918 ft | 435 kts | 259° |
| 2026-05-04 22:19 | 32.52432 | -91.00008 | 42914 ft | 434 kts | 259° |
| 2026-05-04 22:20 | 32.50297 | -91.06669 | 42917 ft | 435 kts | 259° |
| 2026-05-04 22:20 | 32.48156 | -91.13335 | 42913 ft | 434 kts | 259° |
| 2026-05-04 22:21 | 32.46008 | -91.20014 | 42907 ft | 432 kts | 259° |
| 2026-05-04 22:21 | 32.43942 | -91.26420 | 42900 ft | 434 kts | 259° |
| 2026-05-04 22:22 | 32.41810 | -91.33016 | 42903 ft | 431 kts | 259° |
| 2026-05-04 22:22 | 32.39668 | -91.39635 | 42901 ft | 430 kts | 259° |
| 2026-05-04 22:23 | 32.37520 | -91.46252 | 42904 ft | 432 kts | 259° |
| 2026-05-04 22:23 | 32.35367 | -91.52877 | 42895 ft | 432 kts | 259° |
| 2026-05-04 22:24 | 32.33221 | -91.59463 | 42901 ft | 431 kts | 259° |
| 2026-05-04 22:24 | 32.31077 | -91.66027 | 42911 ft | 430 kts | 259° |
| 2026-05-04 22:25 | 32.28919 | -91.72621 | 42926 ft | 431 kts | 258° |
| 2026-05-04 22:25 | 32.26766 | -91.79192 | 42908 ft | 430 kts | 259° |
| 2026-05-04 22:26 | 32.24603 | -91.85777 | 42913 ft | 432 kts | 259° |
| 2026-05-04 22:26 | 32.22443 | -91.92336 | 42913 ft | 431 kts | 259° |
| 2026-05-04 22:27 | 32.20272 | -91.98919 | 42912 ft | 429 kts | 258° |
| 2026-05-04 22:27 | 32.18100 | -92.05489 | 42897 ft | 430 kts | 258° |
| 2026-05-04 22:28 | 32.15942 | -92.12004 | 42898 ft | 431 kts | 259° |
| 2026-05-04 22:28 | 32.13760 | -92.18577 | 42906 ft | 430 kts | 259° |
| 2026-05-04 22:29 | 32.11596 | -92.25083 | 42900 ft | 429 kts | 259° |
| 2026-05-04 22:29 | 32.09413 | -92.31639 | 42890 ft | 429 kts | 259° |
| 2026-05-04 22:30 | 32.07248 | -92.38120 | 42893 ft | 429 kts | 259° |
| 2026-05-04 22:30 | 32.05054 | -92.44675 | 42892 ft | 429 kts | 259° |
| 2026-05-04 22:31 | 32.02880 | -92.51165 | 42896 ft | 428 kts | 258° |
| 2026-05-04 22:31 | 32.00688 | -92.57691 | 42887 ft | 426 kts | 258° |
| 2026-05-04 22:32 | 31.98515 | -92.64143 | 42885 ft | 427 kts | 258° |
| 2026-05-04 22:32 | 31.96190 | -92.70586 | 42917 ft | 429 kts | 256° |
| 2026-05-04 22:33 | 31.93727 | -92.76981 | 42905 ft | 430 kts | 256° |
| 2026-05-04 22:33 | 31.91263 | -92.83341 | 42898 ft | 431 kts | 256° |
| 2026-05-04 22:34 | 31.88779 | -92.89741 | 42885 ft | 429 kts | 256° |
| 2026-05-04 22:34 | 31.86307 | -92.96101 | 42890 ft | 428 kts | 255° |
| 2026-05-04 22:35 | 31.83830 | -93.02455 | 42890 ft | 429 kts | 255° |
| 2026-05-04 22:35 | 31.81326 | -93.08875 | 42891 ft | 431 kts | 255° |
| 2026-05-04 22:36 | 31.78844 | -93.15218 | 42889 ft | 431 kts | 255° |
| 2026-05-04 22:36 | 31.76346 | -93.21596 | 42878 ft | 430 kts | 255° |
| 2026-05-04 22:37 | 31.73848 | -93.27961 | 42885 ft | 430 kts | 255° |
| 2026-05-04 22:37 | 31.71349 | -93.34317 | 42878 ft | 430 kts | 255° |
| 2026-05-04 22:38 | 31.68831 | -93.40708 | 42872 ft | 431 kts | 255° |
| 2026-05-04 22:38 | 31.66603 | -93.46345 | 42838 ft | 416 kts | 256° |
| 2026-05-04 22:39 | 31.64204 | -93.52422 | 42780 ft | 412 kts | 256° |
| 2026-05-04 22:39 | 31.61781 | -93.58548 | 42717 ft | 415 kts | 255° |
| 2026-05-04 22:40 | 31.59357 | -93.64662 | 42652 ft | 416 kts | 255° |
| 2026-05-04 22:40 | 31.56922 | -93.70789 | 42630 ft | 415 kts | 255° |
| 2026-05-04 22:40 | 31.55713 | -93.73834 | 42230 ft | 420 kts | 255° |
| 2026-05-04 22:41 | 31.54477 | -93.76935 | 41770 ft | 422 kts | 255° |
| 2026-05-04 22:41 | 31.53237 | -93.80043 | 41303 ft | 421 kts | 255° |
| 2026-05-04 22:41 | 31.51994 | -93.83161 | 40838 ft | 421 kts | 255° |
| 2026-05-04 22:41 | 31.50760 | -93.86253 | 40373 ft | 423 kts | 255° |
| 2026-05-04 22:42 | 31.49512 | -93.89378 | 39914 ft | 425 kts | 255° |
| 2026-05-04 22:42 | 31.48263 | -93.92503 | 39437 ft | 426 kts | 255° |
| 2026-05-04 22:42 | 31.47002 | -93.95655 | 38977 ft | 428 kts | 255° |
| 2026-05-04 22:42 | 31.45754 | -93.98772 | 38530 ft | 430 kts | 255° |
| 2026-05-04 22:43 | 31.44480 | -94.01946 | 38064 ft | 431 kts | 255° |
| 2026-05-04 22:43 | 31.43214 | -94.05100 | 37587 ft | 430 kts | 255° |
| 2026-05-04 22:43 | 31.41943 | -94.08266 | 37114 ft | 431 kts | 255° |
| 2026-05-04 22:43 | 31.40665 | -94.11446 | 36635 ft | 432 kts | 255° |
| 2026-05-04 22:44 | 31.39391 | -94.14613 | 36164 ft | 432 kts | 255° |
| 2026-05-04 22:44 | 31.38104 | -94.17808 | 35680 ft | 434 kts | 255° |
| 2026-05-04 22:44 | 31.36819 | -94.20999 | 35200 ft | 436 kts | 255° |
| 2026-05-04 22:44 | 31.35528 | -94.24198 | 34713 ft | 438 kts | 255° |
| 2026-05-04 22:45 | 31.34239 | -94.27392 | 34236 ft | 440 kts | 255° |
| 2026-05-04 22:45 | 31.31628 | -94.33849 | 33270 ft | 443 kts | 255° |
| 2026-05-04 22:45 | 31.30300 | -94.37131 | 32807 ft | 445 kts | 255° |
| 2026-05-04 22:46 | 31.28978 | -94.40398 | 32332 ft | 449 kts | 255° |
| 2026-05-04 22:46 | 31.27645 | -94.43682 | 31838 ft | 449 kts | 254° |
| 2026-05-04 22:46 | 31.26316 | -94.46954 | 31339 ft | 450 kts | 254° |
| 2026-05-04 22:46 | 31.24965 | -94.50282 | 30845 ft | 452 kts | 254° |
| 2026-05-04 22:47 | 31.23638 | -94.53529 | 30351 ft | 438 kts | 254° |
| 2026-05-04 22:47 | 31.22349 | -94.56692 | 29868 ft | 425 kts | 254° |
| 2026-05-04 22:47 | 31.21095 | -94.59776 | 29406 ft | 418 kts | 254° |
| 2026-05-04 22:47 | 31.19858 | -94.62814 | 28955 ft | 419 kts | 254° |
| 2026-05-04 22:48 | 31.18603 | -94.65897 | 28509 ft | 421 kts | 253° |
| 2026-05-04 22:48 | 31.17357 | -94.68945 | 28062 ft | 416 kts | 253° |
| 2026-05-04 22:48 | 31.16196 | -94.71995 | 27599 ft | 409 kts | 259° |
| 2026-05-04 22:48 | 31.15485 | -94.75145 | 27173 ft | 401 kts | 263° |
| 2026-05-04 22:49 | 31.14818 | -94.78317 | 26718 ft | 400 kts | 263° |
| 2026-05-04 22:49 | 31.14156 | -94.81429 | 26285 ft | 398 kts | 263° |
| 2026-05-04 22:49 | 31.13488 | -94.84563 | 25845 ft | 396 kts | 263° |
| 2026-05-04 22:49 | 31.12828 | -94.87640 | 25405 ft | 396 kts | 262° |
| 2026-05-04 22:50 | 31.12162 | -94.90748 | 24961 ft | 394 kts | 263° |
| 2026-05-04 22:50 | 31.11504 | -94.93815 | 24534 ft | 391 kts | 262° |
| 2026-05-04 22:50 | 31.10843 | -94.96884 | 24096 ft | 391 kts | 262° |
| 2026-05-04 22:50 | 31.10179 | -94.99967 | 23659 ft | 389 kts | 262° |
| 2026-05-04 22:51 | 31.09522 | -95.03010 | 23230 ft | 388 kts | 262° |
| 2026-05-04 22:51 | 31.08868 | -95.06036 | 22810 ft | 386 kts | 262° |
| 2026-05-04 22:51 | 31.08218 | -95.09045 | 22381 ft | 384 kts | 262° |
| 2026-05-04 22:51 | 31.07564 | -95.12067 | 21957 ft | 383 kts | 261° |
| 2026-05-04 22:52 | 31.06914 | -95.15070 | 21539 ft | 381 kts | 261° |
| 2026-05-04 22:52 | 31.06269 | -95.18039 | 21114 ft | 382 kts | 261° |
| 2026-05-04 22:52 | 31.05619 | -95.21030 | 20692 ft | 380 kts | 261° |
| 2026-05-04 22:52 | 31.04964 | -95.24042 | 20270 ft | 379 kts | 261° |
| 2026-05-04 22:53 | 31.04323 | -95.26986 | 19848 ft | 378 kts | 261° |
| 2026-05-04 22:53 | 31.03678 | -95.29943 | 19428 ft | 377 kts | 261° |
| 2026-05-04 22:53 | 31.03036 | -95.32887 | 19010 ft | 375 kts | 261° |
| 2026-05-04 22:53 | 31.02388 | -95.35849 | 18588 ft | 376 kts | 261° |
| 2026-05-04 22:54 | 31.01748 | -95.38776 | 18177 ft | 374 kts | 260° |
| 2026-05-04 22:54 | 31.01109 | -95.41690 | 17764 ft | 374 kts | 260° |
| 2026-05-04 22:54 | 31.00467 | -95.44616 | 17357 ft | 373 kts | 260° |
| 2026-05-04 22:54 | 30.99827 | -95.47534 | 16951 ft | 372 kts | 260° |
| 2026-05-04 22:55 | 30.99186 | -95.50449 | 16537 ft | 370 kts | 259° |
| 2026-05-04 22:55 | 30.98550 | -95.53338 | 16136 ft | 367 kts | 260° |
| 2026-05-04 22:55 | 30.97922 | -95.56185 | 15737 ft | 365 kts | 259° |
| 2026-05-04 22:55 | 30.97286 | -95.59072 | 15330 ft | 365 kts | 259° |
| 2026-05-04 22:56 | 30.96663 | -95.61893 | 14933 ft | 362 kts | 259° |
| 2026-05-04 22:56 | 30.96034 | -95.64733 | 14533 ft | 361 kts | 259° |
| 2026-05-04 22:56 | 30.95413 | -95.67543 | 14144 ft | 361 kts | 259° |
| 2026-05-04 22:56 | 30.94789 | -95.70358 | 13746 ft | 358 kts | 259° |
| 2026-05-04 22:57 | 30.94163 | -95.73183 | 13348 ft | 357 kts | 259° |
| 2026-05-04 22:57 | 30.93549 | -95.75948 | 12957 ft | 356 kts | 259° |
| 2026-05-04 22:57 | 30.92935 | -95.78711 | 12568 ft | 354 kts | 259° |
| 2026-05-04 22:57 | 30.92319 | -95.81480 | 12178 ft | 353 kts | 258° |
| 2026-05-04 22:58 | 30.91706 | -95.84230 | 11787 ft | 351 kts | 258° |
| 2026-05-04 22:58 | 30.91094 | -95.86975 | 11398 ft | 350 kts | 258° |
| 2026-05-04 22:58 | 30.90485 | -95.89703 | 11012 ft | 349 kts | 258° |
| 2026-05-04 22:58 | 30.89877 | -95.92420 | 10621 ft | 343 kts | 258° |
| 2026-05-04 22:59 | 30.89286 | -95.95061 | 10236 ft | 330 kts | 257° |
| 2026-05-04 22:59 | 30.88721 | -95.97582 | 9873 ft | 318 kts | 257° |
| 2026-05-04 22:59 | 30.88171 | -96.00033 | 9520 ft | 307 kts | 257° |
| 2026-05-04 22:59 | 30.87644 | -96.02384 | 9188 ft | 298 kts | 257° |
| 2026-05-04 23:00 | 30.87125 | -96.04700 | 8865 ft | 289 kts | 257° |
| 2026-05-04 23:00 | 30.86626 | -96.06918 | 8559 ft | 281 kts | 256° |
| 2026-05-04 23:00 | 30.86136 | -96.09097 | 8254 ft | 274 kts | 256° |
| 2026-05-04 23:00 | 30.85663 | -96.11198 | 7960 ft | 270 kts | 256° |
| 2026-05-04 23:01 | 30.85188 | -96.13306 | 7665 ft | 268 kts | 256° |
| 2026-05-04 23:01 | 30.84716 | -96.15404 | 7371 ft | 267 kts | 255° |
| 2026-05-04 23:01 | 30.84243 | -96.17499 | 7080 ft | 266 kts | 255° |
| 2026-05-04 23:01 | 30.83775 | -96.19570 | 6794 ft | 265 kts | 255° |
| 2026-05-04 23:02 | 30.83325 | -96.21568 | 6589 ft | 249 kts | 255° |
| 2026-05-04 23:02 | 30.82983 | -96.23502 | 6255 ft | 238 kts | 258° |
| 2026-05-04 23:02 | 30.82676 | -96.25339 | 5984 ft | 227 kts | 257° |
| 2026-05-04 23:02 | 30.82378 | -96.27108 | 5734 ft | 218 kts | 257° |
| 2026-05-04 23:03 | 30.82092 | -96.28805 | 5498 ft | 209 kts | 257° |
| 2026-05-04 23:03 | 30.81816 | -96.30442 | 5273 ft | 202 kts | 256° |
| 2026-05-04 23:03 | 30.81551 | -96.32005 | 5059 ft | 196 kts | 256° |
| 2026-05-04 23:03 | 30.81290 | -96.33548 | 4839 ft | 191 kts | 256° |
| 2026-05-04 23:04 | 30.81039 | -96.35036 | 4646 ft | 185 kts | 255° |
| 2026-05-04 23:04 | 30.80788 | -96.36505 | 4522 ft | 184 kts | 255° |
| 2026-05-04 23:04 | 30.80541 | -96.37959 | 4342 ft | 183 kts | 255° |
| 2026-05-04 23:04 | 30.80252 | -96.39387 | 4285 ft | 179 kts | 243° |
| 2026-05-04 23:05 | 30.79356 | -96.40314 | 4257 ft | 179 kts | 200° |
| 2026-05-04 23:05 | 30.78099 | -96.40338 | 3970 ft | 183 kts | 174° |
| 2026-05-04 23:05 | 30.76849 | -96.40104 | 3707 ft | 182 kts | 173° |
| 2026-05-04 23:05 | 30.75603 | -96.39854 | 3456 ft | 181 kts | 172° |
| 2026-05-04 23:06 | 30.74362 | -96.39593 | 3227 ft | 177 kts | 172° |
| 2026-05-04 23:06 | 30.73199 | -96.39342 | 3014 ft | 166 kts | 171° |
| 2026-05-04 23:06 | 30.72105 | -96.39100 | 2769 ft | 150 kts | 171° |
| 2026-05-04 23:06 | 30.71178 | -96.38891 | 2570 ft | 122 kts | 172° |
| 2026-05-04 23:07 | 30.70378 | -96.38711 | 2414 ft | 112 kts | 172° |
| 2026-05-04 23:07 | 30.69611 | -96.38541 | 2288 ft | 113 kts | 172° |
| 2026-05-04 23:07 | 30.68827 | -96.38365 | 2142 ft | 114 kts | 172° |
| 2026-05-04 23:07 | 30.68041 | -96.38188 | 1984 ft | 112 kts | 172° |
| 2026-05-04 23:08 | 30.67273 | -96.38013 | 1832 ft | 112 kts | 172° |
| 2026-05-04 23:08 | 30.66513 | -96.37843 | 1690 ft | 114 kts | 172° |
| 2026-05-04 23:08 | 30.65723 | -96.37665 | 1537 ft | 114 kts | 172° |
| 2026-05-04 23:08 | 30.64958 | -96.37491 | 1394 ft | 110 kts | 172° |
| 2026-05-04 23:09 | 30.64179 | -96.37315 | 1247 ft | 113 kts | 172° |
| 2026-05-04 23:09 | 30.63387 | -96.37135 | 1088 ft | 115 kts | 172° |
| 2026-05-04 23:09 | 30.62616 | -96.36961 | 934 ft | 116 kts | 171° |
| 2026-05-04 23:09 | 30.61823 | -96.36781 | 775 ft | 118 kts | 171° |
| 2026-05-04 23:10 | 30.61029 | -96.36600 | 632 ft | 112 kts | 171° |
| 2026-05-04 23:10 | 30.60249 | -96.36422 | 473 ft | 112 kts | 171° |
| 2026-05-04 23:10 | 30.59457 | -96.36247 | 316 ft | 115 kts | 169° |
| 2026-05-04 23:10 | 30.58805 | -96.36096 | 301 ft | 63 kts | 168° |
| 2026-05-04 23:11 | 30.58422 | -96.36008 | 300 ft | 55 kts | 171° |
| 2026-05-04 23:11 | 30.58080 | -96.35920 | 294 ft | 46 kts | 168° |
| 2026-05-04 23:11 | 30.57866 | -96.35874 | 289 ft | 16 kts | 169° |
| 2026-05-04 23:11 | 30.57792 | -96.35815 | 286 ft | 13 kts | 94° |
| 2026-05-04 23:12 | 30.57841 | -96.35743 | 286 ft | 13 kts | 349° |
| 2026-05-04 23:12 | 30.57938 | -96.35765 | 289 ft | 17 kts | 348° |
| 2026-05-04 23:12 | 30.58112 | -96.35807 | 292 ft | 33 kts | 347° |
| 2026-05-04 23:12 | 30.58345 | -96.35877 | 297 ft | 33 kts | 347° |
| 2026-05-04 23:13 | 30.58639 | -96.35938 | 300 ft | 35 kts | 354° |
| 2026-05-04 23:13 | 30.58741 | -96.35888 | 299 ft | 19 kts | 115° |
| 2026-05-04 23:13 | 30.58711 | -96.35733 | 295 ft | 15 kts | 43° |
| 2026-05-04 23:13 | 30.58829 | -96.35710 | 295 ft | 12 kts | 332° |
| 2026-05-04 23:14 | 30.58840 | -96.35719 | 295 ft | 0 kts | 319° |